Terminal Aerodrome Forecast
Issued by NWS

Home | Current Version | Previous Version | Text Only | Print | Product List | Glossary Off
Versions: 1 2 3 4 5 6 7 8 9 10 11 12 13 14 15 16 17 18 19 20 21

000
FTUS43 KGRB 291300 AAB
TAFAUW
TAF AMD
KAUW 291349Z 2914/3012 32012G18KT 6SM BR OVC011
     FM291600 31017G25KT P6SM -SN BKN015 BKN030
     FM300000 32012KT P6SM BKN025 BKN035
     FM300300 32008KT P6SM FEW030 SCT100=

USA.gov is the U.S. government's official web portal to all federal, state and local government web resources and services.